createdAt,value
2023-05-10T00:01:38.145Z,20.00
2023-05-10T00:04:28.482Z,20.00
2023-05-10T00:07:18.141Z,20.20
2023-05-10T00:10:06.334Z,20.00
2023-05-10T00:12:53.908Z,20.20
2023-05-10T00:15:41.492Z,20.00
2023-05-10T00:18:28.983Z,20.40
2023-05-10T00:21:16.539Z,20.30
2023-05-10T00:24:04.402Z,20.50
2023-05-10T00:26:51.870Z,20.40
2023-05-10T00:29:39.326Z,20.30
2023-05-10T00:32:26.950Z,20.20
2023-05-10T00:35:14.560Z,20.30
2023-05-10T00:38:02.037Z,20.60
2023-05-10T00:40:49.535Z,20.50
2023-05-10T00:43:37.047Z,20.50
2023-05-10T00:46:26.095Z,20.50
2023-05-10T00:49:14.084Z,20.50
2023-05-10T00:52:03.021Z,20.40
2023-05-10T00:54:53.597Z,20.30
2023-05-10T00:57:41.393Z,20.20
2023-05-10T01:00:29.023Z,20.00
2023-05-10T01:03:16.556Z,20.20
2023-05-10T01:06:04.531Z,20.20
2023-05-10T01:08:52.351Z,20.20
2023-05-10T01:11:41.590Z,20.10
2023-05-10T01:14:30.223Z,20.00
2023-05-10T01:17:19.610Z,20.00
2023-05-10T01:20:10.461Z,19.90
2023-05-10T01:23:28.751Z,19.80
2023-05-10T01:26:48.826Z,19.90
2023-05-10T01:30:13.554Z,19.70
2023-05-10T01:33:40.182Z,20.00
2023-05-10T01:36:52.405Z,19.80
2023-05-10T01:39:39.868Z,19.70
2023-05-10T01:42:37.343Z,19.50
2023-05-10T01:45:35.040Z,19.20
2023-05-10T01:48:24.362Z,18.90
2023-05-10T01:51:13.217Z,18.60
2023-05-10T01:54:04.974Z,18.50
2023-05-10T01:57:04.345Z,18.40
2023-05-10T01:59:53.641Z,18.30
2023-05-10T02:02:47.214Z,18.30
2023-05-10T02:05:37.245Z,18.30
2023-05-10T02:08:26.771Z,18.10
2023-05-10T02:11:15.592Z,18.10
2023-05-10T02:14:04.692Z,17.90
2023-05-10T02:16:56.612Z,17.70
2023-05-10T02:19:48.037Z,17.60
2023-05-10T02:22:38.262Z,17.50
2023-05-10T02:25:28.188Z,17.40
2023-05-10T02:28:18.224Z,17.30
2023-05-10T02:31:08.565Z,17.30
2023-05-10T02:33:58.242Z,17.50
2023-05-10T02:36:46.082Z,17.60
2023-05-10T02:39:34.922Z,17.50
2023-05-10T02:42:30.327Z,17.60
2023-05-10T02:45:23.402Z,17.50
2023-05-10T02:48:11.609Z,17.50
2023-05-10T02:51:08.256Z,17.50
2023-05-10T02:53:58.555Z,17.60
2023-05-10T02:56:54.958Z,17.50
2023-05-10T02:59:43.963Z,17.50
2023-05-10T03:02:32.221Z,17.50
2023-05-10T03:05:20.749Z,17.50
2023-05-10T03:08:08.759Z,17.60
2023-05-10T03:11:40.776Z,17.50
2023-05-10T03:14:44.578Z,17.50
2023-05-10T03:17:44.760Z,17.40
2023-05-10T03:20:47.229Z,17.40
2023-05-10T03:23:47.876Z,17.40
2023-05-10T03:26:38.317Z,17.40
2023-05-10T03:29:29.082Z,17.70
2023-05-10T03:32:16.575Z,17.70
2023-05-10T03:35:15.344Z,17.70
2023-05-10T03:38:03.203Z,17.80
2023-05-10T03:40:50.658Z,17.80
2023-05-10T03:43:38.315Z,17.90
2023-05-10T03:46:25.789Z,18.10
2023-05-10T03:49:13.579Z,18.20
2023-05-10T03:52:01.182Z,18.30
2023-05-10T03:54:48.638Z,18.70
2023-05-10T03:57:36.501Z,18.70
2023-05-10T04:00:24.009Z,19.00
2023-05-10T04:03:13.004Z,19.20
2023-05-10T04:06:03.012Z,19.40
2023-05-10T04:08:50.654Z,19.50
2023-05-10T04:11:38.117Z,19.60
2023-05-10T04:14:25.684Z,19.50
2023-05-10T04:17:13.246Z,19.50
2023-05-10T04:20:00.742Z,19.60
2023-05-10T04:22:48.242Z,19.60
2023-05-10T04:25:36.672Z,19.70
2023-05-10T04:28:24.222Z,19.80
2023-05-10T04:31:12.073Z,19.70
2023-05-10T04:33:59.589Z,19.80
2023-05-10T04:36:47.116Z,19.90
2023-05-10T04:39:34.621Z,19.90
2023-05-10T04:42:22.086Z,19.90
2023-05-10T04:45:10.764Z,19.90
2023-05-10T04:47:58.248Z,20.00
2023-05-10T04:50:45.799Z,20.00
2023-05-10T04:53:33.680Z,20.10
2023-05-10T04:56:21.161Z,20.10
2023-05-10T04:59:08.681Z,20.20
2023-05-10T05:01:56.312Z,20.30
2023-05-10T05:04:43.969Z,20.30
2023-05-10T05:07:31.877Z,20.40
2023-05-10T05:10:19.651Z,20.50
2023-05-10T05:13:07.349Z,20.50
2023-05-10T05:15:56.179Z,20.50
2023-05-10T05:18:43.641Z,20.60
2023-05-10T05:21:31.149Z,20.50
2023-05-10T05:24:18.589Z,20.50
2023-05-10T05:27:07.082Z,20.50
2023-05-10T05:29:57.996Z,20.50
2023-05-10T05:32:45.649Z,20.60
2023-05-10T05:35:33.076Z,20.80
2023-05-10T05:38:20.598Z,20.70
2023-05-10T05:41:08.078Z,20.80
2023-05-10T05:43:55.683Z,20.90
2023-05-10T05:46:43.131Z,21.00
2023-05-10T05:49:31.111Z,20.90
2023-05-10T05:52:18.810Z,20.90
2023-05-10T05:55:06.577Z,21.00
2023-05-10T05:57:54.946Z,21.00
2023-05-10T06:00:42.874Z,21.00
2023-05-10T06:03:30.465Z,21.10
2023-05-10T06:06:17.934Z,21.00
2023-05-10T06:09:05.683Z,21.10
2023-05-10T06:11:53.290Z,21.10
2023-05-10T06:14:40.812Z,21.20
2023-05-10T06:17:28.695Z,21.20
2023-05-10T06:20:17.071Z,21.20
2023-05-10T06:23:04.512Z,21.40
2023-05-10T06:25:53.077Z,21.20
2023-05-10T06:28:41.153Z,21.20
2023-05-10T06:31:28.693Z,21.10
2023-05-10T06:34:16.181Z,21.10
2023-05-10T06:37:04.682Z,21.20
2023-05-10T06:39:54.652Z,21.20
2023-05-10T06:42:42.373Z,21.20
2023-05-10T06:45:29.890Z,21.10
2023-05-10T06:48:17.454Z,21.20
2023-05-10T06:51:05.179Z,21.10
2023-05-10T06:53:52.709Z,21.00
2023-05-10T06:56:40.149Z,21.00
2023-05-10T06:59:27.626Z,20.90
2023-05-10T07:02:16.191Z,20.90
2023-05-10T07:05:04.016Z,21.00
2023-05-10T07:07:52.712Z,20.90
2023-05-10T07:10:40.207Z,21.00
2023-05-10T07:13:27.685Z,21.00
2023-05-10T07:16:15.301Z,21.00
2023-05-10T07:19:03.394Z,20.90
2023-05-10T07:21:52.064Z,20.90
2023-05-10T07:24:39.562Z,20.90
2023-05-10T07:27:27.113Z,20.90
2023-05-10T07:30:15.073Z,20.90
2023-05-10T07:33:02.584Z,20.90
2023-05-10T07:35:51.162Z,20.90
2023-05-10T07:38:40.819Z,21.00
2023-05-10T07:41:28.600Z,20.60
2023-05-10T07:44:16.377Z,21.10
2023-05-10T07:47:03.940Z,20.90
2023-05-10T07:49:51.469Z,20.90
2023-05-10T07:52:38.941Z,21.00
2023-05-10T07:55:27.407Z,21.20
2023-05-10T07:58:14.831Z,21.20
2023-05-10T08:01:02.515Z,21.50
2023-05-10T08:03:51.770Z,21.50
2023-05-10T08:06:39.300Z,21.30
2023-05-10T08:09:26.775Z,21.20
2023-05-10T08:12:14.335Z,20.90
2023-05-10T08:15:01.805Z,21.10
2023-05-10T08:17:49.395Z,21.10
2023-05-10T08:20:36.930Z,21.00
2023-05-10T08:23:24.395Z,21.10
2023-05-10T08:26:12.278Z,21.00
2023-05-10T08:29:00.207Z,21.20
2023-05-10T08:31:47.744Z,21.40
2023-05-10T08:34:35.299Z,21.30
2023-05-10T08:37:24.879Z,21.20
2023-05-10T08:40:13.565Z,21.20
2023-05-10T08:43:12.469Z,20.60
2023-05-10T08:46:06.362Z,20.40
2023-05-10T08:48:57.241Z,20.40
2023-05-10T08:51:51.137Z,20.40
2023-05-10T08:54:39.325Z,20.40
2023-05-10T08:57:27.482Z,20.30
2023-05-10T09:00:16.833Z,20.50
2023-05-10T09:03:06.712Z,20.70
2023-05-10T09:05:57.067Z,20.60
2023-05-10T09:08:46.166Z,20.40
2023-05-10T09:11:34.047Z,20.50
2023-05-10T09:14:21.852Z,20.50
2023-05-10T09:17:11.207Z,20.90
2023-05-10T09:20:05.732Z,20.80
2023-05-10T09:22:53.234Z,20.90
2023-05-10T09:25:43.385Z,20.80
2023-05-10T09:28:54.060Z,20.90
2023-05-10T09:31:49.297Z,20.80
2023-05-10T09:34:41.022Z,21.00
2023-05-10T09:37:31.593Z,20.90
2023-05-10T09:40:25.359Z,21.30
2023-05-10T09:43:14.458Z,21.90
2023-05-10T09:46:12.358Z,21.70
2023-05-10T09:49:00.216Z,22.10
2023-05-10T09:51:47.759Z,21.70
2023-05-10T09:54:36.276Z,22.10
2023-05-10T09:57:27.062Z,21.90
2023-05-10T10:00:21.744Z,22.20
2023-05-10T10:03:22.229Z,21.80
2023-05-10T10:06:18.921Z,22.30
2023-05-10T10:09:10.854Z,22.30
2023-05-10T10:11:58.706Z,22.40
2023-05-10T10:14:51.408Z,22.80
2023-05-10T10:17:42.129Z,23.00
2023-05-10T10:20:30.091Z,23.10
2023-05-10T10:23:18.005Z,22.80
2023-05-10T10:26:07.151Z,22.90
2023-05-10T10:29:35.858Z,23.20
2023-05-10T10:33:20.126Z,22.90
2023-05-10T10:36:16.533Z,22.50
2023-05-10T10:39:11.976Z,22.90
2023-05-10T10:42:01.085Z,22.60
2023-05-10T10:44:48.622Z,22.60
2023-05-10T10:47:38.274Z,22.50
2023-05-10T10:50:25.805Z,22.80
2023-05-10T10:53:14.309Z,22.90
2023-05-10T10:56:14.766Z,22.80
2023-05-10T10:59:02.940Z,23.00
2023-05-10T11:01:53.561Z,23.30
2023-05-10T11:04:47.725Z,23.30
2023-05-10T11:07:35.892Z,23.40
2023-05-10T11:10:25.205Z,23.40
2023-05-10T11:13:12.812Z,23.00
2023-05-10T11:16:21.062Z,23.30
2023-05-10T11:19:12.985Z,23.20
2023-05-10T11:22:06.656Z,23.60
2023-05-10T11:25:00.348Z,23.80
2023-05-10T11:27:49.697Z,23.50
2023-05-10T11:30:39.835Z,23.80
2023-05-10T11:33:27.349Z,23.90
2023-05-10T11:36:29.972Z,23.90
2023-05-10T11:39:17.753Z,23.70
2023-05-10T11:42:05.452Z,23.80
2023-05-10T11:44:53.030Z,23.80
2023-05-10T11:47:42.907Z,23.80
2023-05-10T11:50:35.188Z,23.80
2023-05-10T11:53:24.798Z,23.70
2023-05-10T11:56:13.415Z,23.70
2023-05-10T11:59:02.996Z,23.80
2023-05-10T12:01:50.630Z,23.70
2023-05-10T12:04:38.629Z,23.90
2023-05-10T12:07:28.057Z,23.50
2023-05-10T12:10:16.615Z,23.60
2023-05-10T12:13:04.348Z,23.20
2023-05-10T12:15:51.904Z,23.20
2023-05-10T12:18:43.829Z,23.20
2023-05-10T12:21:31.913Z,23.30
2023-05-10T12:24:20.351Z,23.10
2023-05-10T12:27:10.348Z,23.50
2023-05-10T12:30:01.398Z,23.60
2023-05-10T12:32:49.184Z,23.60
2023-05-10T12:35:51.568Z,23.30
2023-05-10T12:38:49.873Z,23.10
2023-05-10T12:41:37.445Z,23.20
2023-05-10T12:44:24.953Z,23.30
2023-05-10T12:47:12.446Z,23.40
2023-05-10T12:50:01.955Z,23.60
2023-05-10T12:52:49.450Z,23.60
2023-05-10T12:55:37.186Z,23.60
2023-05-10T12:58:34.815Z,23.60
2023-05-10T13:01:23.513Z,23.70
2023-05-10T13:04:11.213Z,23.70
2023-05-10T13:07:00.014Z,23.70
2023-05-10T13:09:47.543Z,24.00
2023-05-10T13:12:35.279Z,24.10
2023-05-10T13:15:23.338Z,24.20
2023-05-10T13:18:11.157Z,24.10
2023-05-10T13:20:58.776Z,24.20
2023-05-10T13:23:47.703Z,24.40
2023-05-10T13:26:35.518Z,24.40
2023-05-10T13:29:23.749Z,24.50
2023-05-10T13:32:11.313Z,24.60
2023-05-10T13:34:58.893Z,24.70
2023-05-10T13:37:46.426Z,24.70
2023-05-10T13:40:33.950Z,24.80
2023-05-10T13:43:21.510Z,24.70
2023-05-10T13:46:09.114Z,24.70
2023-05-10T13:48:56.591Z,25.00
2023-05-10T13:51:44.857Z,25.10
2023-05-10T13:54:32.674Z,25.40
2023-05-10T13:57:20.549Z,25.70
2023-05-10T14:00:09.153Z,26.40
2023-05-10T14:02:56.841Z,26.70
2023-05-10T14:05:46.050Z,26.90
2023-05-10T14:08:33.487Z,27.10
2023-05-10T14:11:22.714Z,27.20
2023-05-10T14:14:12.732Z,27.00
2023-05-10T14:17:00.625Z,26.80
2023-05-10T14:19:48.367Z,26.20
2023-05-10T14:22:36.481Z,26.40
2023-05-10T14:25:24.923Z,26.50
2023-05-10T14:28:13.405Z,26.50
2023-05-10T14:31:01.008Z,26.20
2023-05-10T14:33:49.033Z,26.00
2023-05-10T14:36:36.568Z,25.50
2023-05-10T14:39:24.671Z,25.30
2023-05-10T14:42:13.278Z,25.20
2023-05-10T14:45:00.828Z,25.00
2023-05-10T14:47:48.396Z,24.90
2023-05-10T14:50:37.470Z,24.60
2023-05-10T14:53:25.287Z,24.30
2023-05-10T14:56:12.789Z,24.10
2023-05-10T14:59:01.316Z,24.00
2023-05-10T15:01:49.303Z,24.00
2023-05-10T15:04:37.532Z,23.90
2023-05-10T15:07:26.218Z,23.50
2023-05-10T15:10:15.217Z,23.40
2023-05-10T15:13:04.891Z,23.40
2023-05-10T15:15:52.630Z,23.40
2023-05-10T15:18:40.294Z,23.10
2023-05-10T15:21:28.638Z,23.10
2023-05-10T15:24:16.231Z,23.50
2023-05-10T15:27:03.888Z,23.50
2023-05-10T15:29:51.624Z,23.70
2023-05-10T15:32:41.219Z,24.20
2023-05-10T15:35:29.296Z,24.10
2023-05-10T15:38:16.798Z,24.10
2023-05-10T15:41:04.509Z,24.30
2023-05-10T15:43:52.116Z,24.30
2023-05-10T15:46:39.693Z,24.60
2023-05-10T15:49:27.250Z,24.40
2023-05-10T15:52:14.784Z,24.30
2023-05-10T15:55:02.330Z,24.30
2023-05-10T15:57:50.043Z,24.30
2023-05-10T16:00:37.620Z,24.30
2023-05-10T16:03:25.550Z,24.40
2023-05-10T16:06:13.662Z,24.70
2023-05-10T16:09:01.513Z,24.70
2023-05-10T16:11:49.151Z,24.60
2023-05-10T16:14:36.816Z,24.10
2023-05-10T16:17:24.370Z,24.70
2023-05-10T16:20:12.211Z,24.70
2023-05-10T16:23:07.420Z,24.50
2023-05-10T16:25:58.014Z,24.50
2023-05-10T16:28:49.050Z,24.50
2023-05-10T16:31:37.456Z,24.60
2023-05-10T16:34:25.419Z,24.50
2023-05-10T16:37:13.089Z,24.50
2023-05-10T16:40:00.717Z,24.50
2023-05-10T16:42:48.298Z,24.60
2023-05-10T16:45:36.090Z,24.30
2023-05-10T16:48:23.998Z,24.40
2023-05-10T16:51:11.529Z,24.40
2023-05-10T16:53:59.108Z,24.30
2023-05-10T16:56:46.729Z,24.40
2023-05-10T16:59:34.320Z,24.10
2023-05-10T17:02:23.129Z,24.30
2023-05-10T17:05:11.045Z,24.20
2023-05-10T17:07:58.875Z,24.10
2023-05-10T17:10:46.624Z,24.10
2023-05-10T17:13:34.456Z,24.10
2023-05-10T17:16:22.460Z,24.20
2023-05-10T17:19:10.344Z,24.20
2023-05-10T17:21:58.035Z,24.10
2023-05-10T17:24:46.639Z,24.00
2023-05-10T17:27:34.257Z,24.00
2023-05-10T17:30:26.411Z,23.80
2023-05-10T17:33:13.964Z,23.90
2023-05-10T17:36:01.541Z,23.80
2023-05-10T17:38:49.705Z,23.80
2023-05-10T17:41:37.306Z,23.70
2023-05-10T17:44:26.083Z,23.60
2023-05-10T17:47:13.621Z,23.50
2023-05-10T17:50:01.304Z,23.50
2023-05-10T17:52:48.868Z,23.50
2023-05-10T17:55:36.465Z,23.50
2023-05-10T17:58:24.008Z,23.50
2023-05-10T18:01:11.557Z,23.40
2023-05-10T18:03:59.227Z,23.40
2023-05-10T18:06:46.757Z,23.30
2023-05-10T18:09:34.350Z,23.30
2023-05-10T18:12:34.153Z,23.30
2023-05-10T18:15:21.980Z,23.20
2023-05-10T18:18:11.011Z,23.20
2023-05-10T18:20:58.599Z,23.10
2023-05-10T18:23:46.240Z,23.00
2023-05-10T18:26:33.754Z,23.00
2023-05-10T18:29:21.294Z,23.00
2023-05-10T18:32:08.854Z,23.00
2023-05-10T18:34:57.633Z,23.00
2023-05-10T18:37:45.242Z,22.90
2023-05-10T18:40:33.020Z,22.90
2023-05-10T18:43:20.534Z,22.90
2023-05-10T18:46:08.385Z,22.90
2023-05-10T18:48:56.149Z,22.90
2023-05-10T18:51:43.654Z,22.90
2023-05-10T18:54:31.296Z,22.90
2023-05-10T18:57:18.946Z,22.80
2023-05-10T19:00:13.334Z,22.80
2023-05-10T19:03:00.931Z,22.70
2023-05-10T19:05:49.087Z,22.80
2023-05-10T19:08:36.664Z,22.70
2023-05-10T19:11:24.230Z,22.70
2023-05-10T19:14:11.972Z,22.70
2023-05-10T19:17:01.464Z,22.60
2023-05-10T19:19:49.787Z,22.60
2023-05-10T19:22:54.247Z,22.60
2023-05-10T19:25:46.813Z,22.60
2023-05-10T19:28:34.585Z,22.30
2023-05-10T19:31:22.378Z,22.30
2023-05-10T19:34:09.998Z,22.30
2023-05-10T19:36:58.646Z,22.10
2023-05-10T19:39:46.286Z,22.10
2023-05-10T19:42:33.850Z,22.10
2023-05-10T19:45:21.403Z,22.00
2023-05-10T19:48:09.291Z,22.00
2023-05-10T19:51:02.865Z,21.90
2023-05-10T19:53:50.481Z,21.80
2023-05-10T19:56:38.059Z,21.90
2023-05-10T19:59:25.685Z,21.90
2023-05-10T20:02:13.228Z,21.80
2023-05-10T20:05:00.679Z,21.80
2023-05-10T20:07:48.251Z,21.70
2023-05-10T20:10:35.740Z,21.80
2023-05-10T20:13:23.366Z,21.70
2023-05-10T20:16:11.004Z,21.70
2023-05-10T20:18:58.656Z,21.80
2023-05-10T20:21:46.171Z,21.60
2023-05-10T20:24:33.730Z,21.70
2023-05-10T20:27:21.295Z,21.80
2023-05-10T20:30:10.750Z,21.80
2023-05-10T20:32:58.295Z,21.80
2023-05-10T20:35:45.913Z,21.80
2023-05-10T20:38:33.491Z,21.80
2023-05-10T20:41:21.160Z,21.80
2023-05-10T20:44:08.974Z,21.80
2023-05-10T20:46:56.590Z,21.80
2023-05-10T20:49:44.414Z,21.80
2023-05-10T20:52:31.948Z,21.80
2023-05-10T20:55:20.954Z,21.80
2023-05-10T20:58:08.412Z,21.80
2023-05-10T21:00:55.942Z,21.90
2023-05-10T21:03:43.417Z,21.90
2023-05-10T21:06:32.133Z,21.90
2023-05-10T21:09:19.716Z,21.90
2023-05-10T21:12:09.283Z,21.70
2023-05-10T21:14:56.751Z,21.80
2023-05-10T21:17:45.831Z,21.60
2023-05-10T21:20:33.392Z,21.70
2023-05-10T21:23:20.947Z,21.70
2023-05-10T21:26:08.581Z,21.50
2023-05-10T21:28:56.552Z,21.60
2023-05-10T21:31:44.135Z,21.40
2023-05-10T21:34:31.650Z,21.50
2023-05-10T21:37:19.301Z,21.50
2023-05-10T21:40:07.984Z,21.50
2023-05-10T21:42:55.580Z,21.60
2023-05-10T21:45:43.094Z,21.40
2023-05-10T21:48:31.056Z,21.40
2023-05-10T21:51:18.595Z,21.40
2023-05-10T21:54:06.329Z,21.40
2023-05-10T21:56:53.995Z,21.40
2023-05-10T21:59:41.605Z,21.40
2023-05-10T22:02:29.577Z,21.10
2023-05-10T22:05:17.463Z,21.20
2023-05-10T22:08:07.997Z,21.20
2023-05-10T22:10:55.562Z,21.20
2023-05-10T22:13:43.045Z,21.10
2023-05-10T22:16:31.186Z,21.20
2023-05-10T22:19:18.685Z,21.00
2023-05-10T22:22:06.442Z,21.00
2023-05-10T22:24:53.986Z,21.00
2023-05-10T22:27:41.574Z,21.00
2023-05-10T22:30:30.966Z,20.90
2023-05-10T22:33:19.941Z,20.80
2023-05-10T22:36:08.445Z,20.90
2023-05-10T22:38:55.996Z,20.90
2023-05-10T22:41:43.531Z,20.70
2023-05-10T22:44:31.571Z,20.60
2023-05-10T22:47:19.106Z,20.70
2023-05-10T22:50:08.022Z,20.80
2023-05-10T22:52:55.520Z,20.80
2023-05-10T22:55:43.258Z,20.90
2023-05-10T22:58:31.968Z,21.00
2023-05-10T23:01:19.651Z,21.00
2023-05-10T23:04:07.248Z,21.00
2023-05-10T23:06:54.728Z,21.00
2023-05-10T23:09:42.208Z,21.00
2023-05-10T23:12:31.492Z,21.10
2023-05-10T23:15:19.197Z,21.00
2023-05-10T23:18:06.926Z,21.10
2023-05-10T23:20:54.449Z,21.10
2023-05-10T23:23:43.347Z,21.00
2023-05-10T23:26:30.867Z,21.00
2023-05-10T23:29:18.403Z,21.00
2023-05-10T23:32:06.123Z,21.00
2023-05-10T23:34:53.923Z,20.90
2023-05-10T23:37:42.844Z,20.90
2023-05-10T23:40:30.467Z,20.80
2023-05-10T23:43:19.833Z,20.60
2023-05-10T23:46:07.455Z,20.70
2023-05-10T23:48:55.007Z,20.70
2023-05-10T23:55:15.565Z,20.20
2023-05-10T23:58:03.082Z,20.50
